Time;durP1;ratioP1;P1;durP2;ratioP2;P2;SDS_P1;SDS_P2;PMS_P1;PMS_P2;Temp;Humidity;BMP_temperature;BMP_pressure;BME280_temperature;BME280_humidity;BME280_pressure;Samples;Min_cycle;Max_cycle;Signal;HPM_P1;HPM_P2
2022/11/09 00:01:12;;;;;;;6.30;1.85;;;;;;;17.32;45.56;100702.06;4938121;28;98948;-71
2022/11/09 00:03:38;;;;;;;3.75;1.52;;;;;;;17.03;46.21;100704.75;4931705;28;99130;-70
2022/11/09 00:06:04;;;;;;;5.50;2.15;;;;;;;17.18;46.06;100713.59;4935204;28;97062;-70
2022/11/09 00:08:31;;;;;;;9.77;2.58;;;;;;;17.27;46.07;100705.00;4933745;28;96933;-70
2022/11/09 00:11:04;;;;;;;5.72;2.67;;;;;;;17.20;45.95;100711.69;4931669;28;99311;-73
2022/11/09 00:13:31;;;;;;;6.28;2.65;;;;;;;17.47;45.59;100709.06;4932463;28;100972;-70
2022/11/09 00:15:58;;;;;;;3.70;2.08;;;;;;;17.41;45.66;100709.47;4932584;28;96811;-70
2022/11/09 00:18:25;;;;;;;3.63;2.15;;;;;;;17.33;45.95;100709.94;4930477;28;96867;-71
2022/11/09 00:20:51;;;;;;;4.13;2.03;;;;;;;17.28;45.68;100703.19;4928661;28;99261;-70
2022/11/09 00:23:18;;;;;;;6.60;1.92;;;;;;;17.38;45.92;100701.66;4932665;28;100603;-71
2022/11/09 00:25:44;;;;;;;3.88;1.75;;;;;;;17.41;45.79;100699.63;4931079;28;96942;-71
2022/11/09 00:28:12;;;;;;;5.20;1.98;;;;;;;17.16;46.14;100695.97;4932030;28;96839;-72
2022/11/09 00:30:40;;;;;;;2.50;1.83;;;;;;;17.39;45.96;100693.53;4931229;28;100523;-70
2022/11/09 00:33:06;;;;;;;5.82;2.50;;;;;;;17.11;46.25;100690.91;4930944;28;99057;-70
2022/11/09 00:35:33;;;;;;;4.32;2.42;;;;;;;17.39;45.81;100701.53;4931520;28;97236;-70
2022/11/09 00:37:59;;;;;;;4.40;2.05;;;;;;;17.54;45.28;100700.56;4931623;28;97837;-71
2022/11/09 00:40:26;;;;;;;4.90;2.38;;;;;;;17.52;45.36;100698.97;4931163;28;99887;-70
2022/11/09 00:42:52;;;;;;;3.55;2.03;;;;;;;17.63;45.24;100688.44;4930487;28;99688;-71
2022/11/09 00:45:20;;;;;;;5.20;2.28;;;;;;;17.50;45.43;100692.84;4928599;28;96852;-72
2022/11/09 00:47:46;;;;;;;5.10;2.08;;;;;;;17.56;45.45;100688.91;4930273;28;97874;-71
2022/11/09 00:50:13;;;;;;;8.50;1.83;;;;;;;17.49;45.47;100686.66;4932718;28;100691;-71
2022/11/09 00:52:39;;;;;;;7.30;2.03;;;;;;;17.46;45.43;100692.16;4930698;28;99273;-70
2022/11/09 00:55:06;;;;;;;3.63;2.03;;;;;;;17.41;45.83;100694.28;4927665;28;97235;-71
2022/11/09 00:57:33;;;;;;;4.35;2.10;;;;;;;17.34;45.71;100686.75;4930971;28;97492;-72
2022/11/09 00:59:59;;;;;;;3.97;1.90;;;;;;;17.26;45.91;100683.75;4930913;28;99263;-70
2022/11/09 01:02:27;;;;;;;5.88;2.00;;;;;;;17.33;45.80;100685.91;4930385;28;98804;-70
2022/11/09 01:04:53;;;;;;;4.55;1.83;;;;;;;17.35;45.82;100677.81;4931717;28;96932;-70
2022/11/09 01:07:20;;;;;;;5.90;1.90;;;;;;;17.14;46.19;100696.06;4931290;28;97015;-70
2022/11/09 01:09:47;;;;;;;5.70;2.00;;;;;;;17.17;46.46;100681.66;4930589;28;99044;-71
2022/11/09 01:12:14;;;;;;;2.88;1.70;;;;;;;17.02;46.39;100688.81;4926778;28;99404;-72
2022/11/09 01:14:40;;;;;;;3.25;1.83;;;;;;;16.80;47.09;100681.31;4929427;28;96823;-71
2022/11/09 01:17:07;;;;;;;2.15;1.55;;;;;;;17.06;46.46;100683.22;4928061;28;97719;-70
2022/11/09 01:19:35;;;;;;;6.53;1.90;;;;;;;16.92;46.56;100675.22;4931206;28;99475;-70
2022/11/09 01:22:01;;;;;;;3.15;1.80;;;;;;;16.85;46.79;100673.88;4929164;28;99114;-70
2022/11/09 01:24:28;;;;;;;4.30;1.98;;;;;;;16.86;46.63;100669.41;4928067;28;97961;-70
2022/11/09 01:26:54;;;;;;;5.10;1.88;;;;;;;16.72;47.16;100678.25;4924966;28;97043;-70
2022/11/09 01:29:21;;;;;;;3.05;1.63;;;;;;;16.73;47.24;100663.97;4930124;28;99063;-70
2022/11/09 01:31:47;;;;;;;3.08;1.58;;;;;;;16.72;47.20;100663.13;4931805;28;98933;-71
2022/11/09 01:34:16;;;;;;;5.47;1.67;;;;;;;16.66;47.33;100673.31;4928660;28;97191;-70
2022/11/09 01:36:44;;;;;;;4.50;2.00;;;;;;;16.59;47.55;100661.25;4932146;28;96936;-70
2022/11/09 01:39:10;;;;;;;4.45;1.77;;;;;;;16.68;47.21;100671.38;4931341;28;99367;-71
2022/11/09 01:41:37;;;;;;;5.63;1.60;;;;;;;16.80;46.85;100667.13;4927294;28;98938;-70
2022/11/09 01:44:10;;;;;;;4.40;1.70;;;;;;;16.82;46.76;100666.06;4929492;28;96817;-71
2022/11/09 01:46:42;;;;;;;3.05;1.65;;;;;;;16.94;46.73;100657.25;4931724;28;97642;-69
2022/11/09 01:49:13;;;;;;;4.90;1.85;;;;;;;16.81;46.94;100660.81;4929897;28;99340;-69
2022/11/09 01:51:46;;;;;;;5.82;1.88;;;;;;;16.73;46.95;100663.97;4930664;28;98925;-69
2022/11/09 01:54:17;;;;;;;4.18;1.60;;;;;;;16.78;46.87;100661.88;4927923;28;98801;-69
2022/11/09 01:56:45;;;;;;;3.17;1.80;;;;;;;16.70;47.27;100664.16;4926359;28;101081;-69
2022/11/09 01:59:16;;;;;;;4.20;1.60;;;;;;;16.65;47.07;100664.44;4927679;28;99353;-70
2022/11/09 02:01:43;;;;;;;4.15;1.90;;;;;;;16.42;47.69;100648.09;4930857;28;98464;-70
2022/11/09 02:04:13;;;;;;;3.20;1.85;;;;;;;16.59;47.52;100653.25;4929891;28;96769;-69
2022/11/09 02:06:40;;;;;;;3.42;1.95;;;;;;;16.62;47.48;100645.94;4928212;28;97290;-69
2022/11/09 02:09:14;;;;;;;4.88;1.83;;;;;;;16.67;47.29;100643.00;4929580;28;101036;-68
2022/11/09 02:11:41;;;;;;;3.08;1.63;;;;;;;16.56;47.33;100629.44;4926773;28;98958;-68
2022/11/09 02:14:09;;;;;;;2.97;1.40;;;;;;;16.24;48.11;100640.25;4925427;28;97004;-69
2022/11/09 02:16:36;;;;;;;3.80;1.92;;;;;;;16.64;47.41;100630.72;4927071;28;99847;-69
2022/11/09 02:19:03;;;;;;;3.53;1.98;;;;;;;16.54;47.50;100626.84;4928420;28;100302;-69
2022/11/09 02:21:32;;;;;;;3.88;1.98;;;;;;;16.76;47.11;100625.56;4929132;28;98890;-68
2022/11/09 02:23:59;;;;;;;3.03;2.15;;;;;;;16.66;47.20;100630.63;4927092;28;96970;-69
2022/11/09 02:26:29;;;;;;;3.75;1.77;;;;;;;16.57;47.33;100625.81;4930958;28;97918;-69
2022/11/09 02:28:58;;;;;;;3.85;1.75;;;;;;;16.51;47.49;100628.88;4929201;28;99938;-69
2022/11/09 02:31:30;;;;;;;2.95;2.10;;;;;;;16.38;47.88;100630.56;4928852;28;98723;-69
2022/11/09 02:34:05;;;;;;;4.05;1.80;;;;;;;16.33;48.02;100637.06;4925905;28;96910;-69
2022/11/09 02:36:34;;;;;;;4.03;2.25;;;;;;;16.30;48.21;100639.88;4930438;28;97823;-70
2022/11/09 02:39:01;;;;;;;5.25;2.03;;;;;;;16.31;48.04;100627.41;4930460;28;99339;-70
2022/11/09 02:41:30;;;;;;;6.97;1.95;;;;;;;16.30;48.24;100628.38;4925487;28;99296;-68
2022/11/09 02:43:56;;;;;;;2.50;1.88;;;;;;;16.29;48.09;100629.31;4928558;28;96897;-68
2022/11/09 02:46:25;;;;;;;2.63;1.67;;;;;;;16.29;48.06;100632.84;4929779;28;97147;-69
2022/11/09 02:48:51;;;;;;;5.35;1.50;;;;;;;16.27;48.17;100621.44;4928669;28;99278;-68
2022/11/09 02:51:18;;;;;;;4.10;1.73;;;;;;;16.36;47.85;100622.66;4927636;28;99438;-69
2022/11/09 02:53:46;;;;;;;5.10;2.08;;;;;;;16.26;48.05;100625.03;4928656;28;96818;-69
2022/11/09 02:56:12;;;;;;;5.60;1.83;;;;;;;16.21;48.38;100624.44;4929981;28;97260;-69
2022/11/09 02:58:38;;;;;;;5.45;1.80;;;;;;;16.10;48.61;100626.03;4927869;28;99144;-69
2022/11/09 03:01:05;;;;;;;2.70;1.80;;;;;;;16.23;48.32;100622.53;4928136;28;99362;-69
2022/11/09 03:03:32;;;;;;;8.43;2.10;;;;;;;15.91;48.94;100631.63;4928778;28;96818;-70
2022/11/09 03:05:59;;;;;;;2.55;1.90;;;;;;;15.89;49.01;100628.19;4928998;28;97299;-70
2022/11/09 03:08:25;;;;;;;4.43;2.00;;;;;;;16.07;48.76;100621.78;4927482;28;99249;-70
2022/11/09 03:10:53;;;;;;;2.45;1.70;;;;;;;16.15;48.53;100624.81;4927878;28;98870;-69
2022/11/09 03:13:20;;;;;;;4.05;1.83;;;;;;;16.06;48.72;100621.84;4929263;28;96769;-69
2022/11/09 03:15:46;;;;;;;2.40;1.45;;;;;;;16.15;48.57;100613.28;4930608;28;97309;-69
2022/11/09 03:18:13;;;;;;;3.75;1.58;;;;;;;16.21;48.38;100619.09;4928875;28;99792;-69
2022/11/09 03:20:39;;;;;;;3.33;1.70;;;;;;;16.17;48.24;100606.06;4929842;28;99349;-68
2022/11/09 03:23:06;;;;;;;2.08;1.73;;;;;;;16.35;47.88;100597.78;4927944;28;96879;-69
2022/11/09 03:25:32;;;;;;;4.82;1.63;;;;;;;16.62;47.28;100594.41;4937033;28;96910;-70
2022/11/09 03:28:02;;;;;;;3.25;1.60;;;;;;;16.61;47.37;100593.53;4927112;28;101393;-69
2022/11/09 03:30:29;;;;;;;3.10;1.65;;;;;;;16.56;47.15;100595.63;4928211;28;100493;-68
2022/11/09 03:32:59;;;;;;;3.38;1.70;;;;;;;16.63;47.06;100593.44;4928352;28;99574;-69
2022/11/09 03:35:25;;;;;;;4.22;1.60;;;;;;;16.58;47.11;100595.53;4927210;28;97063;-69
2022/11/09 03:37:52;;;;;;;5.05;1.70;;;;;;;16.33;47.64;100610.38;4928747;28;101551;-70
2022/11/09 03:40:19;;;;;;;3.78;1.50;;;;;;;16.54;47.36;100607.34;4926710;28;99325;-70
2022/11/09 03:42:47;;;;;;;3.65;1.77;;;;;;;16.56;47.22;100608.94;4925790;28;99321;-69
2022/11/09 03:45:16;;;;;;;4.43;1.90;;;;;;;16.60;47.25;100628.34;4930228;28;96975;-68
2022/11/09 03:47:43;;;;;;;4.07;1.77;;;;;;;16.64;47.18;100633.38;4924780;28;100856;-69
2022/11/09 03:50:10;;;;;;;3.95;1.75;;;;;;;16.60;47.04;100626.53;4927819;28;99076;-69
2022/11/09 03:52:37;;;;;;;2.28;1.55;;;;;;;16.42;47.50;100629.41;4927148;28;97018;-69
2022/11/09 03:55:05;;;;;;;1.98;1.30;;;;;;;16.57;47.20;100631.16;4927378;28;96868;-68
2022/11/09 03:57:32;;;;;;;4.63;1.52;;;;;;;16.54;47.15;100634.03;4927535;28;99213;-69
2022/11/09 03:59:58;;;;;;;2.42;1.70;;;;;;;16.56;47.60;100640.09;4928176;28;99282;-69
2022/11/09 04:02:26;;;;;;;2.55;1.38;;;;;;;16.47;47.88;100640.69;4928791;28;97223;-67
2022/11/09 04:04:53;;;;;;;6.00;1.70;;;;;;;16.51;47.88;100642.19;4928669;28;96840;-69
2022/11/09 04:07:20;;;;;;;6.22;1.92;;;;;;;16.67;48.06;100645.69;4929350;28;98921;-69
2022/11/09 04:09:47;;;;;;;6.65;1.50;;;;;;;16.71;47.81;100645.38;4930923;28;99118;-69
2022/11/09 04:12:13;;;;;;;3.78;1.55;;;;;;;16.51;48.75;100644.88;4927255;28;97017;-70
2022/11/09 04:14:40;;;;;;;2.55;1.83;;;;;;;16.55;48.38;100638.38;4933032;28;97475;-69
2022/11/09 04:17:07;;;;;;;3.85;1.48;;;;;;;16.66;48.33;100638.63;4927770;28;99898;-69
2022/11/09 04:19:35;;;;;;;6.30;1.70;;;;;;;16.76;48.05;100637.09;4927480;28;99171;-70
2022/11/09 04:22:01;;;;;;;3.20;1.85;;;;;;;16.60;48.72;100636.34;4927794;28;96697;-69
2022/11/09 04:24:27;;;;;;;2.70;1.50;;;;;;;16.69;48.93;100627.75;4926329;28;97113;-68
2022/11/09 04:26:54;;;;;;;5.28;2.05;;;;;;;16.73;48.92;100630.16;4925712;28;99009;-68
2022/11/09 04:29:20;;;;;;;4.13;1.67;;;;;;;16.79;48.68;100615.56;4926562;28;99290;-69
2022/11/09 04:31:48;;;;;;;7.88;1.83;;;;;;;16.74;48.78;100622.97;4929272;28;96863;-68
2022/11/09 04:34:15;;;;;;;3.03;1.85;;;;;;;16.77;49.02;100621.94;4928996;28;98578;-68
2022/11/09 04:36:43;;;;;;;2.88;1.70;;;;;;;16.69;49.04;100620.59;4930370;28;99291;-69
2022/11/09 04:39:10;;;;;;;3.15;1.92;;;;;;;16.67;49.47;100622.50;4929450;28;99032;-70
2022/11/09 04:41:37;;;;;;;3.08;1.70;;;;;;;16.73;49.33;100637.28;4932329;28;100038;-69
2022/11/09 04:44:03;;;;;;;4.03;1.85;;;;;;;16.90;49.40;100633.53;4932197;28;96865;-68
2022/11/09 04:46:30;;;;;;;3.17;1.65;;;;;;;16.85;49.51;100630.31;4929869;28;99401;-68
2022/11/09 04:48:56;;;;;;;2.72;1.70;;;;;;;16.73;49.91;100637.28;4928886;28;98918;-69
2022/11/09 04:51:23;;;;;;;4.85;1.70;;;;;;;16.87;49.59;100629.25;4931266;28;97531;-69
2022/11/09 04:53:51;;;;;;;3.15;1.60;;;;;;;16.99;49.38;100625.81;4929562;28;96920;-70
2022/11/09 04:56:17;;;;;;;4.47;1.92;;;;;;;16.81;49.78;100626.09;4923456;28;99531;-69
2022/11/09 04:58:44;;;;;;;2.03;1.65;;;;;;;16.82;49.99;100630.50;4929686;28;98915;-69
2022/11/09 05:01:12;;;;;;;3.55;1.67;;;;;;;16.67;50.30;100643.00;4932665;28;97212;-68
2022/11/09 05:03:39;;;;;;;2.42;2.13;;;;;;;16.85;50.01;100633.00;4929177;28;96973;-69
2022/11/09 05:06:30;;;;;;;3.72;1.88;;;;;;;16.79;50.16;100639.56;4931534;28;99888;-69
2022/11/09 05:08:54;;;;;;;;;;;;;;;16.85;50.21;100644.53;4929392;28;98929;-68
2022/11/09 05:11:21;;;;;;;4.35;1.90;;;;;;;16.83;50.38;100638.41;4926220;28;96936;-68
2022/11/09 05:13:47;;;;;;;3.97;2.13;;;;;;;16.78;50.76;100643.19;4925280;28;97289;-68
2022/11/09 05:16:16;;;;;;;2.83;1.67;;;;;;;16.64;51.34;100654.72;4929638;28;99331;-70
2022/11/09 05:18:42;;;;;;;2.67;1.75;;;;;;;16.63;51.40;100644.13;4929332;28;98725;-69
2022/11/09 05:21:09;;;;;;;3.67;2.15;;;;;;;16.78;51.27;100651.19;4930533;28;96926;-70
2022/11/09 05:26:22;;;;;;;3.33;1.70;;;;;;;16.82;51.73;100650.03;4927419;28;97288;-69
2022/11/09 05:28:48;;;;;;;4.82;2.25;;;;;;;16.78;52.21;100645.84;4932146;28;98796;-69
2022/11/09 05:31:14;;;;;;;4.72;1.83;;;;;;;16.68;52.28;100645.56;4936140;28;97208;-69
2022/11/09 05:33:41;;;;;;;1.98;1.58;;;;;;;16.68;52.64;100648.22;4930766;28;97996;-69
2022/11/09 05:36:08;;;;;;;3.28;2.33;;;;;;;16.86;51.90;100651.59;4931369;28;99047;-69
2022/11/09 05:38:34;;;;;;;2.80;1.83;;;;;;;16.82;52.12;100655.38;4929881;28;97758;-70
2022/11/09 05:41:01;;;;;;;4.40;1.65;;;;;;;16.71;52.43;100664.06;4929033;28;96798;-69
2022/11/09 05:43:29;;;;;;;6.97;2.25;;;;;;;16.67;52.84;100654.50;4929412;28;97221;-68
2022/11/09 05:45:56;;;;;;;4.85;2.25;;;;;;;16.67;52.94;100653.69;4930373;28;99264;-69
2022/11/09 05:48:22;;;;;;;3.83;2.03;;;;;;;16.62;53.14;100650.41;4929553;28;99267;-69
2022/11/09 05:50:49;;;;;;;6.40;2.00;;;;;;;16.74;52.94;100650.50;4925567;28;98734;-69
2022/11/09 05:53:15;;;;;;;4.30;2.08;;;;;;;16.74;52.99;100649.66;4922569;28;99119;-69
2022/11/09 05:55:42;;;;;;;3.28;2.20;;;;;;;16.84;52.94;100649.94;4924790;28;99467;-69
2022/11/09 05:58:09;;;;;;;4.97;2.20;;;;;;;16.79;52.82;100654.72;4925551;28;98353;-69
2022/11/09 06:00:38;;;;;;;4.20;2.00;;;;;;;16.72;52.95;100662.25;4925452;28;96919;-70
2022/11/09 06:03:06;;;;;;;5.95;2.45;;;;;;;16.87;52.85;100657.78;4926385;28;98790;-69
2022/11/09 06:05:33;;;;;;;9.38;3.50;;;;;;;16.53;53.60;100656.31;4922695;28;98970;-69
2022/11/09 06:08:02;;;;;;;4.93;2.45;;;;;;;16.91;52.76;100653.94;4925715;28;99122;-71
2022/11/09 06:10:29;;;;;;;3.95;2.45;;;;;;;16.91;52.64;100646.81;4924749;28;98635;-69
2022/11/09 06:12:56;;;;;;;4.90;2.20;;;;;;;16.99;52.58;100652.53;4921865;28;97551;-69
2022/11/09 06:15:23;;;;;;;5.75;2.28;;;;;;;17.04;52.47;100671.75;4928599;28;98932;-69
2022/11/09 06:17:52;;;;;;;3.85;2.03;;;;;;;16.82;52.74;100668.72;4931196;28;98914;-69
2022/11/09 06:20:19;;;;;;;5.47;2.10;;;;;;;16.72;52.92;100671.13;4926898;28;96853;-70
2022/11/09 06:22:55;;;;;;;9.30;3.05;;;;;;;16.69;53.32;100679.28;4925306;28;96910;-70
2022/11/09 06:25:21;;;;;;;;;;;;;;;16.70;53.20;100689.03;4929466;28;98907;-68
2022/11/09 06:27:48;;;;;;;7.17;1.63;;;;;;;16.88;53.03;100679.00;4925900;28;98743;-70
2022/11/09 06:30:15;;;;;;;3.55;2.00;;;;;;;16.99;52.49;100687.22;4925471;28;97069;-70
2022/11/09 06:32:42;;;;;;;3.45;1.88;;;;;;;16.97;52.30;100681.13;4931259;28;96927;-70
2022/11/09 06:35:10;;;;;;;9.13;2.95;;;;;;;16.84;52.86;100682.84;4922627;28;99013;-69
2022/11/09 06:37:37;;;;;;;3.42;2.17;;;;;;;16.85;52.69;100687.22;4923110;28;99167;-69
2022/11/09 06:40:05;;;;;;;10.93;2.72;;;;;;;16.82;52.92;100684.72;4929380;28;96750;-69
2022/11/09 06:42:31;;;;;;;4.00;2.25;;;;;;;16.80;53.25;100693.81;4929453;28;98551;-67
2022/11/09 06:44:58;;;;;;;3.50;2.15;;;;;;;16.93;52.90;100692.94;4929485;28;97906;-69
2022/11/09 06:47:24;;;;;;;6.57;2.72;;;;;;;16.91;53.28;100688.66;4930523;28;98048;-70
2022/11/09 06:49:51;;;;;;;3.90;1.90;;;;;;;17.02;52.77;100691.50;4929035;28;97369;-71
2022/11/09 06:52:19;;;;;;;7.03;2.72;;;;;;;17.02;52.91;100699.50;4926831;28;98736;-68
2022/11/09 06:54:45;;;;;;;9.63;2.25;;;;;;;17.00;53.46;100696.91;4928913;28;99060;-68
2022/11/09 06:57:12;;;;;;;5.80;2.85;;;;;;;16.90;54.01;100700.28;4924915;28;98833;-70
2022/11/09 06:59:38;;;;;;;4.05;2.58;;;;;;;16.88;53.76;100708.38;4926862;28;97748;-70
2022/11/09 07:02:05;;;;;;;6.60;2.60;;;;;;;16.86;54.20;100720.09;4926153;28;96868;-72
2022/11/09 07:04:31;;;;;;;4.32;2.40;;;;;;;17.01;54.19;100711.97;4921268;28;99028;-70
2022/11/09 07:06:59;;;;;;;8.07;2.22;;;;;;;17.13;53.61;100711.22;4926480;28;100729;-69
2022/11/09 07:09:26;;;;;;;9.82;2.50;;;;;;;17.09;54.44;100716.84;4926608;28;97345;-70
2022/11/09 07:11:53;;;;;;;7.50;2.63;;;;;;;16.83;55.13;100707.78;4923477;28;97032;-72
2022/11/09 07:14:20;;;;;;;7.20;2.50;;;;;;;17.07;54.47;100714.28;4925384;28;98964;-71
2022/11/09 07:16:46;;;;;;;7.35;2.38;;;;;;;16.91;55.42;100699.31;4926059;28;99209;-71
2022/11/09 07:19:13;;;;;;;10.88;2.60;;;;;;;16.89;55.63;100698.53;4926292;28;97002;-71
2022/11/09 07:21:39;;;;;;;6.80;2.45;;;;;;;17.02;55.64;100697.69;4926400;28;97139;-70
2022/11/09 07:24:07;;;;;;;6.88;2.70;;;;;;;16.88;56.59;100681.69;4923644;28;99457;-72
2022/11/09 07:26:35;;;;;;;7.72;2.53;;;;;;;17.01;56.29;100684.44;4921999;28;99244;-69
2022/11/09 07:29:01;;;;;;;8.48;3.38;;;;;;;16.93;56.66;100663.59;4926286;28;98569;-69
2022/11/09 07:31:29;;;;;;;9.18;2.50;;;;;;;17.00;56.75;100661.38;4926992;28;97178;-70
2022/11/09 07:33:57;;;;;;;10.80;3.03;;;;;;;17.13;56.35;100657.81;4919101;28;99059;-71
2022/11/09 07:36:23;;;;;;;5.75;2.30;;;;;;;17.17;56.68;100647.81;4923746;28;101555;-70
2022/11/09 07:38:50;;;;;;;9.65;3.28;;;;;;;16.95;57.29;100637.63;4926547;28;96987;-72
2022/11/09 07:41:17;;;;;;;7.05;2.92;;;;;;;16.91;57.61;100628.13;4925470;28;97154;-70
2022/11/09 07:43:45;;;;;;;13.77;2.90;;;;;;;16.89;58.35;100663.84;4925323;28;98282;-71
2022/11/09 07:46:11;;;;;;;6.38;2.72;;;;;;;16.70;59.45;100714.84;4922280;28;101618;-71
2022/11/09 07:48:38;;;;;;;6.88;2.67;;;;;;;16.88;58.87;100726.19;4926911;28;97130;-70
2022/11/09 07:51:05;;;;;;;5.10;2.85;;;;;;;16.58;60.08;100724.44;4923701;28;98818;-69
2022/11/09 07:53:32;;;;;;;9.80;3.58;;;;;;;16.71;59.48;100717.44;4926115;28;99022;-69
2022/11/09 07:55:59;;;;;;;6.78;2.70;;;;;;;16.95;58.63;100707.03;4922637;28;97351;-71
2022/11/09 07:58:26;;;;;;;7.45;2.85;;;;;;;17.00;58.77;100715.59;4927201;28;97083;-69
2022/11/09 08:00:55;;;;;;;7.32;2.70;;;;;;;16.76;59.44;100713.59;4926536;28;97186;-69
2022/11/09 08:03:23;;;;;;;7.70;3.38;;;;;;;16.72;59.68;100721.81;4924170;28;97912;-69
2022/11/09 08:05:52;;;;;;;6.53;2.72;;;;;;;16.38;60.62;100722.09;4922036;28;99056;-71
2022/11/09 08:08:19;;;;;;;5.60;3.42;;;;;;;16.74;59.35;100722.56;4924713;28;97530;-70
2022/11/09 08:10:50;;;;;;;6.63;3.08;;;;;;;16.77;59.63;100718.84;4930891;28;97281;-70
2022/11/09 08:13:17;;;;;;;6.10;3.28;;;;;;;16.72;59.98;100720.94;4930015;28;98911;-70
2022/11/09 08:15:44;;;;;;;11.15;3.10;;;;;;;16.79;59.44;100705.41;4926149;28;100785;-70
2022/11/09 08:18:14;;;;;;;8.25;3.80;;;;;;;16.91;59.20;100708.19;4927001;28;97742;-71
2022/11/09 08:20:40;;;;;;;8.27;2.92;;;;;;;16.84;58.77;100722.88;4927164;28;97964;-70
2022/11/09 08:23:07;;;;;;;5.97;3.10;;;;;;;16.69;59.57;100721.97;4930824;28;101327;-70
2022/11/09 08:25:34;;;;;;;7.05;3.60;;;;;;;16.63;59.75;100717.03;4925061;28;100597;-70
2022/11/09 08:28:02;;;;;;;6.03;3.15;;;;;;;16.45;60.38;100718.13;4928733;28;99026;-70
2022/11/09 08:30:29;;;;;;;9.40;3.70;;;;;;;16.59;59.60;100710.13;4929862;28;98748;-69
2022/11/09 08:32:55;;;;;;;5.40;2.92;;;;;;;16.43;60.41;100706.66;4930095;28;98913;-72
2022/11/09 08:35:24;;;;;;;4.53;3.00;;;;;;;16.65;59.98;100703.59;4922926;28;98230;-70
2022/11/09 08:37:52;;;;;;;4.15;2.85;;;;;;;16.60;60.04;100698.56;4927439;28;97158;-70
2022/11/09 08:40:22;;;;;;;3.80;2.70;;;;;;;16.67;59.79;100697.19;4928417;28;97764;-71
2022/11/09 08:42:49;;;;;;;6.13;2.60;;;;;;;16.52;60.39;100692.78;4926780;28;99308;-70
2022/11/09 08:45:16;;;;;;;6.53;3.00;;;;;;;16.53;60.29;100715.84;4926631;28;99151;-70
2022/11/09 08:47:44;;;;;;;3.17;2.38;;;;;;;16.52;60.01;100719.47;4929040;28;96878;-70
2022/11/09 08:50:12;;;;;;;5.47;3.22;;;;;;;16.55;60.52;100718.41;4930208;28;97313;-70
2022/11/09 08:52:41;;;;;;;9.15;3.42;;;;;;;16.40;60.67;100730.88;4929922;28;99127;-70
2022/11/09 08:55:08;;;;;;;5.78;3.25;;;;;;;16.39;60.45;100738.97;4925762;28;99239;-69
2022/11/09 08:57:36;;;;;;;6.43;3.28;;;;;;;16.49;60.23;100746.31;4929854;28;97354;-70
2022/11/09 09:00:03;;;;;;;7.47;3.38;;;;;;;16.56;60.30;100736.13;4929661;28;96958;-69
2022/11/09 09:02:30;;;;;;;6.18;3.00;;;;;;;16.35;60.70;100739.13;4918735;28;99550;-71
2022/11/09 09:04:59;;;;;;;10.68;3.58;;;;;;;16.35;60.59;100747.13;4926238;28;97794;-70
2022/11/09 09:07:27;;;;;;;6.55;3.53;;;;;;;16.36;60.56;100739.97;4929992;28;97169;-69
2022/11/09 09:09:55;;;;;;;7.18;4.00;;;;;;;16.39;60.16;100742.47;4930232;28;97292;-70
2022/11/09 09:12:22;;;;;;;6.55;4.07;;;;;;;16.48;60.42;100751.72;4926489;28;101374;-70
2022/11/09 09:14:49;;;;;;;6.43;4.40;;;;;;;16.41;60.89;100742.41;4927788;28;99174;-69
2022/11/09 09:17:16;;;;;;;6.78;3.58;;;;;;;16.58;60.53;100740.44;4930289;28;97241;-71
2022/11/09 09:19:52;;;;;;;6.60;3.75;;;;;;;16.89;59.58;100739.44;4929160;28;96768;-71
2022/11/09 09:22:19;;;;;;;6.25;3.70;;;;;;;16.74;60.10;100749.25;4929706;28;97749;-69
2022/11/09 09:24:45;;;;;;;10.18;3.45;;;;;;;16.82;59.79;100740.78;4927954;28;98874;-71
2022/11/09 09:27:13;;;;;;;7.05;3.55;;;;;;;16.80;59.21;100739.16;4928594;28;96899;-70
2022/11/09 09:29:40;;;;;;;6.00;3.35;;;;;;;16.82;59.61;100747.91;4926132;28;96909;-71
2022/11/09 09:32:06;;;;;;;8.43;3.50;;;;;;;16.84;59.52;100756.69;4927581;28;101008;-70
2022/11/09 09:34:33;;;;;;;5.88;3.42;;;;;;;16.96;59.21;100750.59;4926387;28;98330;-71
2022/11/09 09:36:59;;;;;;;8.50;4.40;;;;;;;17.27;58.84;100770.91;4930121;28;96803;-70
2022/11/09 09:39:26;;;;;;;10.57;3.60;;;;;;;17.37;57.72;100764.03;4924234;28;96840;-70
2022/11/09 09:41:55;;;;;;;9.13;3.65;;;;;;;17.53;57.56;100757.59;4929246;28;98755;-70
2022/11/09 09:44:29;;;;;;;14.65;3.35;;;;;;;17.73;56.92;100759.03;4920512;28;98982;-69
2022/11/09 09:47:06;;;;;;;4.95;3.42;;;;;;;17.26;58.21;100769.22;4925546;28;97390;-69
2022/11/09 09:49:37;;;;;;;5.57;3.47;;;;;;;17.32;58.45;100779.50;4923831;28;98990;-71
2022/11/09 09:52:23;;;;;;;6.53;3.40;;;;;;;17.30;58.00;100784.06;4926994;28;99417;-70
2022/11/09 09:54:59;;;;;;;4.90;3.15;;;;;;;17.26;58.07;100774.56;4922471;28;99033;-69
2022/11/09 09:57:29;;;;;;;9.73;3.40;;;;;;;16.86;59.17;100770.81;4929225;28;97110;-70
2022/11/09 10:00:02;;;;;;;8.55;3.78;;;;;;;17.18;58.63;100783.03;4925968;28;97286;-69
2022/11/09 10:02:31;;;;;;;7.57;3.90;;;;;;;17.26;58.21;100775.41;4927005;28;99249;-69
2022/11/09 10:05:00;;;;;;;8.05;4.22;;;;;;;17.21;58.10;100780.16;4922594;28;100859;-69
2022/11/09 10:07:30;;;;;;;4.45;3.35;;;;;;;17.20;58.47;100786.44;4920468;28;98648;-69
2022/11/09 10:10:14;;;;;;;5.57;3.40;;;;;;;17.36;57.99;100802.38;4928501;28;97123;-70
2022/11/09 10:13:00;;;;;;;5.30;3.28;;;;;;;17.37;57.97;100793.41;4929385;28;99124;-70
2022/11/09 10:15:35;;;;;;;3.95;2.78;;;;;;;17.27;57.83;100797.59;4928718;28;99097;-69
2022/11/09 10:18:21;;;;;;;9.25;3.53;;;;;;;17.42;57.29;100804.66;4928618;28;97324;-69
2022/11/09 10:21:07;;;;;;;8.68;4.10;;;;;;;17.19;57.90;100791.91;4926851;28;97831;-70
2022/11/09 10:23:42;;;;;;;7.65;3.45;;;;;;;17.11;58.40;100797.72;4918852;28;99282;-70
2022/11/09 10:26:17;;;;;;;7.82;3.47;;;;;;;16.82;59.37;100788.81;4927361;28;99456;-71
2022/11/09 10:28:46;;;;;;;6.47;3.22;;;;;;;17.08;58.71;100780.06;4931202;28;97326;-69
2022/11/09 10:31:18;;;;;;;13.13;3.78;;;;;;;17.14;58.58;100782.34;4923648;28;98745;-69
2022/11/09 10:33:48;;;;;;;7.95;4.00;;;;;;;17.14;58.68;100770.81;4926632;28;100006;-69
2022/11/09 10:36:24;;;;;;;3.95;3.00;;;;;;;17.40;57.70;100759.34;4923347;28;100719;-70
2022/11/09 10:38:54;;;;;;;6.43;3.60;;;;;;;17.26;58.45;100756.72;4927387;28;97235;-70
2022/11/09 10:41:29;;;;;;;5.95;3.55;;;;;;;17.58;57.59;100759.16;4929120;28;97574;-70
2022/11/09 10:43:56;;;;;;;8.87;3.80;;;;;;;17.99;56.85;100762.66;4922058;28;99765;-69
2022/11/09 10:46:24;;;;;;;4.35;3.45;;;;;;;18.04;56.66;100757.03;4926554;28;98903;-69
2022/11/09 10:48:52;;;;;;;5.10;3.30;;;;;;;18.06;56.28;100753.28;4926866;28;97043;-70
2022/11/09 10:51:33;;;;;;;7.72;3.10;;;;;;;18.10;56.10;100741.44;4928354;28;96970;-70
2022/11/09 10:54:19;;;;;;;7.47;3.53;;;;;;;18.35;55.52;100745.13;4920179;28;99323;-70
2022/11/09 10:56:48;;;;;;;7.20;3.03;;;;;;;18.20;55.71;100734.50;4929054;28;99002;-71
2022/11/09 10:59:38;;;;;;;7.45;3.33;;;;;;;18.34;56.16;100738.94;4927091;28;98484;-71
2022/11/09 11:02:43;;;;;;;5.40;3.20;;;;;;;18.15;56.29;100735.78;4927926;28;97177;-70
2022/11/09 11:05:43;;;;;;;4.53;2.35;;;;;;;18.39;55.92;100734.13;4926049;28;99158;-71
2022/11/09 11:08:25;;;;;;;3.30;2.67;;;;;;;18.35;55.39;100727.28;4914087;28;99924;-70
2022/11/09 11:11:07;;;;;;;5.57;2.80;;;;;;;18.23;56.21;100731.66;4927014;28;97165;-71
2022/11/09 11:13:34;;;;;;;3.05;2.28;;;;;;;18.37;55.70;100735.19;4930581;28;96897;-71
2022/11/09 11:16:00;;;;;;;3.10;2.03;;;;;;;18.46;55.60;100735.41;4924847;28;98969;-72
2022/11/09 11:18:30;;;;;;;5.30;2.25;;;;;;;18.64;54.93;100730.69;4924073;28;98847;-71
2022/11/09 11:21:13;;;;;;;4.68;2.10;;;;;;;18.57;54.93;100722.22;4924948;28;96799;-72
2022/11/09 11:23:39;;;;;;;4.85;1.98;;;;;;;18.75;54.46;100722.75;4924636;28;96806;-69
2022/11/09 11:26:31;;;;;;;3.10;2.03;;;;;;;18.93;54.11;100725.94;4927132;28;99171;-70
2022/11/09 11:29:01;;;;;;;4.28;2.00;;;;;;;18.90;54.24;100716.34;4926407;28;98898;-71
2022/11/09 11:31:28;;;;;;;2.22;1.83;;;;;;;18.90;54.22;100720.81;4924918;28;97493;-70
2022/11/09 11:33:57;;;;;;;5.45;1.90;;;;;;;18.83;53.68;100725.75;4925136;28;96916;-68